Terminal Aerodrome Forecast
Issued by NWS

Home | Current Version | Previous Version | Graphics & Text | Print | Product List | Glossary On
Versions: 1 2 3 4 5 6 7 8 9 10 11 12 13 14 15 16 17 18 19 20 21
000
FTUS43 KABR 021338 AAA
TAFATY
TAF AMD
KATY 021338Z 0214/0312 17015G22KT P6SM BKN200
     FM021405 18015G24KT P6SM VCTS FEW015 BKN070CB OVC150
     FM021500 18014G24KT P6SM BKN090
     FM030200 17013KT P6SM VCTS SCT050 BKN080CB OVC120
     FM030600 18015KT P6SM OVC150=

USA.gov is the U.S. government's official web portal to all federal, state and local government web resources and services.